sensor_id;sensor_type;location;lat;lon;timestamp;P1;durP1;ratioP1;P2;durP2;ratioP2
71606;SDS011;60641;53.556;9.914;2023-11-21T00:02:02;15.50;;;6.80;;
71606;SDS011;60641;53.556;9.914;2023-11-21T00:04:30;15.20;;;6.90;;
71606;SDS011;60641;53.556;9.914;2023-11-21T00:06:56;13.20;;;4.80;;
71606;SDS011;60641;53.556;9.914;2023-11-21T00:09:23;13.20;;;5.90;;
71606;SDS011;60641;53.556;9.914;2023-11-21T00:11:49;13.90;;;5.80;;
71606;SDS011;60641;53.556;9.914;2023-11-21T00:14:15;11.80;;;5.10;;
71606;SDS011;60641;53.556;9.914;2023-11-21T00:16:42;11.40;;;4.50;;
71606;SDS011;60641;53.556;9.914;2023-11-21T00:19:08;9.70;;;4.20;;
71606;SDS011;60641;53.556;9.914;2023-11-21T00:21:35;14.00;;;5.60;;
71606;SDS011;60641;53.556;9.914;2023-11-21T00:24:01;12.70;;;5.00;;
71606;SDS011;60641;53.556;9.914;2023-11-21T00:26:28;13.70;;;5.60;;
71606;SDS011;60641;53.556;9.914;2023-11-21T00:28:54;10.70;;;4.90;;
71606;SDS011;60641;53.556;9.914;2023-11-21T00:31:20;10.80;;;5.20;;
71606;SDS011;60641;53.556;9.914;2023-11-21T00:33:47;13.80;;;5.60;;
71606;SDS011;60641;53.556;9.914;2023-11-21T00:36:13;12.60;;;5.80;;
71606;SDS011;60641;53.556;9.914;2023-11-21T00:38:41;17.50;;;5.90;;
71606;SDS011;60641;53.556;9.914;2023-11-21T00:41:07;10.30;;;4.90;;
71606;SDS011;60641;53.556;9.914;2023-11-21T00:43:34;9.60;;;4.30;;
71606;SDS011;60641;53.556;9.914;2023-11-21T00:46:03;10.70;;;5.20;;
71606;SDS011;60641;53.556;9.914;2023-11-21T00:48:31;11.30;;;4.40;;
71606;SDS011;60641;53.556;9.914;2023-11-21T00:51:00;12.30;;;5.00;;
71606;SDS011;60641;53.556;9.914;2023-11-21T00:53:27;11.10;;;4.70;;
71606;SDS011;60641;53.556;9.914;2023-11-21T00:55:54;12.20;;;5.20;;
71606;SDS011;60641;53.556;9.914;2023-11-21T00:58:24;15.10;;;4.60;;
71606;SDS011;60641;53.556;9.914;2023-11-21T01:00:51;11.50;;;4.90;;
71606;SDS011;60641;53.556;9.914;2023-11-21T01:03:17;10.20;;;4.30;;
71606;SDS011;60641;53.556;9.914;2023-11-21T01:05:44;10.00;;;4.60;;
71606;SDS011;60641;53.556;9.914;2023-11-21T01:08:11;9.50;;;4.50;;
71606;SDS011;60641;53.556;9.914;2023-11-21T01:10:38;12.50;;;5.30;;
71606;SDS011;60641;53.556;9.914;2023-11-21T01:13:04;11.20;;;5.20;;
71606;SDS011;60641;53.556;9.914;2023-11-21T01:15:31;15.00;;;5.90;;
71606;SDS011;60641;53.556;9.914;2023-11-21T01:17:58;12.50;;;5.80;;
71606;SDS011;60641;53.556;9.914;2023-11-21T01:20:24;12.80;;;6.10;;
71606;SDS011;60641;53.556;9.914;2023-11-21T01:22:50;15.00;;;6.70;;
71606;SDS011;60641;53.556;9.914;2023-11-21T01:25:17;14.50;;;6.30;;
71606;SDS011;60641;53.556;9.914;2023-11-21T01:27:43;17.90;;;6.60;;
71606;SDS011;60641;53.556;9.914;2023-11-21T01:30:10;14.80;;;6.70;;
71606;SDS011;60641;53.556;9.914;2023-11-21T01:32:37;14.50;;;6.60;;
71606;SDS011;60641;53.556;9.914;2023-11-21T01:35:03;13.60;;;6.20;;
71606;SDS011;60641;53.556;9.914;2023-11-21T01:37:32;13.90;;;6.80;;
71606;SDS011;60641;53.556;9.914;2023-11-21T01:39:59;16.50;;;8.60;;
71606;SDS011;60641;53.556;9.914;2023-11-21T01:42:27;17.70;;;7.60;;
71606;SDS011;60641;53.556;9.914;2023-11-21T01:44:55;16.80;;;7.70;;
71606;SDS011;60641;53.556;9.914;2023-11-21T01:47:21;16.50;;;6.60;;
71606;SDS011;60641;53.556;9.914;2023-11-21T01:49:49;15.90;;;6.70;;
71606;SDS011;60641;53.556;9.914;2023-11-21T01:52:16;14.90;;;6.50;;
71606;SDS011;60641;53.556;9.914;2023-11-21T01:54:44;14.50;;;7.20;;
71606;SDS011;60641;53.556;9.914;2023-11-21T01:57:10;13.10;;;5.80;;
71606;SDS011;60641;53.556;9.914;2023-11-21T01:59:37;14.90;;;6.80;;
71606;SDS011;60641;53.556;9.914;2023-11-21T02:02:04;13.40;;;5.70;;
71606;SDS011;60641;53.556;9.914;2023-11-21T02:04:32;11.70;;;6.00;;
71606;SDS011;60641;53.556;9.914;2023-11-21T02:06:59;12.10;;;5.50;;
71606;SDS011;60641;53.556;9.914;2023-11-21T02:09:26;13.90;;;5.80;;
71606;SDS011;60641;53.556;9.914;2023-11-21T02:11:53;11.30;;;5.40;;
71606;SDS011;60641;53.556;9.914;2023-11-21T02:14:20;10.10;;;4.50;;
71606;SDS011;60641;53.556;9.914;2023-11-21T02:16:50;20.00;;;4.90;;
71606;SDS011;60641;53.556;9.914;2023-11-21T02:19:19;11.80;;;4.90;;
71606;SDS011;60641;53.556;9.914;2023-11-21T02:21:52;10.70;;;5.30;;
71606;SDS011;60641;53.556;9.914;2023-11-21T02:24:19;10.60;;;4.70;;
71606;SDS011;60641;53.556;9.914;2023-11-21T02:26:48;9.70;;;3.60;;
71606;SDS011;60641;53.556;9.914;2023-11-21T02:29:15;9.90;;;4.10;;
71606;SDS011;60641;53.556;9.914;2023-11-21T02:31:45;11.20;;;4.90;;
71606;SDS011;60641;53.556;9.914;2023-11-21T02:34:15;10.20;;;4.80;;
71606;SDS011;60641;53.556;9.914;2023-11-21T02:36:43;9.80;;;3.60;;
71606;SDS011;60641;53.556;9.914;2023-11-21T02:39:10;9.80;;;4.10;;
71606;SDS011;60641;53.556;9.914;2023-11-21T02:41:37;9.40;;;3.50;;
71606;SDS011;60641;53.556;9.914;2023-11-21T02:44:05;9.50;;;5.00;;
71606;SDS011;60641;53.556;9.914;2023-11-21T02:46:33;8.50;;;3.50;;
71606;SDS011;60641;53.556;9.914;2023-11-21T02:49:03;9.40;;;4.00;;
71606;SDS011;60641;53.556;9.914;2023-11-21T02:51:30;9.00;;;3.50;;
71606;SDS011;60641;53.556;9.914;2023-11-21T02:53:56;8.90;;;3.20;;
71606;SDS011;60641;53.556;9.914;2023-11-21T02:56:28;9.90;;;4.10;;
71606;SDS011;60641;53.556;9.914;2023-11-21T02:58:55;9.30;;;3.60;;
71606;SDS011;60641;53.556;9.914;2023-11-21T03:01:22;9.30;;;3.30;;
71606;SDS011;60641;53.556;9.914;2023-11-21T03:03:52;9.90;;;4.50;;
71606;SDS011;60641;53.556;9.914;2023-11-21T03:06:19;9.70;;;4.50;;
71606;SDS011;60641;53.556;9.914;2023-11-21T03:08:46;9.50;;;3.80;;
71606;SDS011;60641;53.556;9.914;2023-11-21T03:11:13;8.50;;;3.60;;
71606;SDS011;60641;53.556;9.914;2023-11-21T03:13:40;9.90;;;3.50;;
71606;SDS011;60641;53.556;9.914;2023-11-21T03:16:10;9.70;;;4.30;;
71606;SDS011;60641;53.556;9.914;2023-11-21T03:18:37;12.00;;;4.60;;
71606;SDS011;60641;53.556;9.914;2023-11-21T03:21:04;8.20;;;3.70;;
71606;SDS011;60641;53.556;9.914;2023-11-21T03:23:32;9.60;;;3.80;;
71606;SDS011;60641;53.556;9.914;2023-11-21T03:25:58;11.50;;;3.60;;
71606;SDS011;60641;53.556;9.914;2023-11-21T03:28:26;10.40;;;4.60;;
71606;SDS011;60641;53.556;9.914;2023-11-21T03:30:54;10.40;;;5.30;;
71606;SDS011;60641;53.556;9.914;2023-11-21T03:33:20;10.20;;;4.90;;
71606;SDS011;60641;53.556;9.914;2023-11-21T03:35:47;9.90;;;4.80;;
71606;SDS011;60641;53.556;9.914;2023-11-21T03:38:15;9.10;;;4.00;;
71606;SDS011;60641;53.556;9.914;2023-11-21T03:40:42;10.20;;;4.90;;
71606;SDS011;60641;53.556;9.914;2023-11-21T03:43:08;9.90;;;4.70;;
71606;SDS011;60641;53.556;9.914;2023-11-21T03:45:35;9.10;;;4.10;;
71606;SDS011;60641;53.556;9.914;2023-11-21T03:48:01;10.10;;;4.60;;
71606;SDS011;60641;53.556;9.914;2023-11-21T03:50:28;8.30;;;3.20;;
71606;SDS011;60641;53.556;9.914;2023-11-21T03:52:55;9.10;;;4.10;;
71606;SDS011;60641;53.556;9.914;2023-11-21T03:55:22;9.30;;;3.90;;
71606;SDS011;60641;53.556;9.914;2023-11-21T03:57:50;11.40;;;3.80;;
71606;SDS011;60641;53.556;9.914;2023-11-21T04:00:17;10.00;;;4.70;;
71606;SDS011;60641;53.556;9.914;2023-11-21T04:02:45;10.30;;;4.50;;
71606;SDS011;60641;53.556;9.914;2023-11-21T04:05:12;10.10;;;4.20;;
71606;SDS011;60641;53.556;9.914;2023-11-21T04:07:38;9.70;;;4.70;;
71606;SDS011;60641;53.556;9.914;2023-11-21T04:10:06;9.60;;;3.60;;
71606;SDS011;60641;53.556;9.914;2023-11-21T04:12:35;11.00;;;4.50;;
71606;SDS011;60641;53.556;9.914;2023-11-21T04:15:02;10.90;;;5.30;;
71606;SDS011;60641;53.556;9.914;2023-11-21T04:17:29;10.10;;;3.90;;
71606;SDS011;60641;53.556;9.914;2023-11-21T04:19:56;10.40;;;5.00;;
71606;SDS011;60641;53.556;9.914;2023-11-21T04:22:23;10.80;;;5.10;;
71606;SDS011;60641;53.556;9.914;2023-11-21T04:24:49;11.80;;;5.50;;
71606;SDS011;60641;53.556;9.914;2023-11-21T04:27:16;11.90;;;5.50;;
71606;SDS011;60641;53.556;9.914;2023-11-21T04:29:44;11.20;;;4.90;;
71606;SDS011;60641;53.556;9.914;2023-11-21T04:32:10;8.90;;;4.10;;
71606;SDS011;60641;53.556;9.914;2023-11-21T04:34:37;9.80;;;4.20;;
71606;SDS011;60641;53.556;9.914;2023-11-21T04:37:03;10.10;;;4.10;;
71606;SDS011;60641;53.556;9.914;2023-11-21T04:39:32;10.20;;;4.70;;
71606;SDS011;60641;53.556;9.914;2023-11-21T04:41:58;11.30;;;4.10;;
71606;SDS011;60641;53.556;9.914;2023-11-21T04:44:25;14.80;;;5.40;;
71606;SDS011;60641;53.556;9.914;2023-11-21T04:46:51;10.50;;;5.10;;
71606;SDS011;60641;53.556;9.914;2023-11-21T04:49:18;11.30;;;5.70;;
71606;SDS011;60641;53.556;9.914;2023-11-21T04:51:44;10.10;;;4.00;;
71606;SDS011;60641;53.556;9.914;2023-11-21T04:54:11;10.70;;;4.40;;
71606;SDS011;60641;53.556;9.914;2023-11-21T04:56:37;10.90;;;5.50;;
71606;SDS011;60641;53.556;9.914;2023-11-21T04:59:04;12.40;;;4.80;;
71606;SDS011;60641;53.556;9.914;2023-11-21T05:01:30;11.10;;;4.80;;
71606;SDS011;60641;53.556;9.914;2023-11-21T05:03:57;11.80;;;5.70;;
71606;SDS011;60641;53.556;9.914;2023-11-21T05:06:23;9.90;;;4.40;;
71606;SDS011;60641;53.556;9.914;2023-11-21T05:08:53;11.80;;;5.30;;
71606;SDS011;60641;53.556;9.914;2023-11-21T05:11:23;9.20;;;3.80;;
71606;SDS011;60641;53.556;9.914;2023-11-21T05:13:53;10.40;;;4.90;;
71606;SDS011;60641;53.556;9.914;2023-11-21T05:16:19;10.20;;;4.70;;
71606;SDS011;60641;53.556;9.914;2023-11-21T05:18:46;11.80;;;4.00;;
71606;SDS011;60641;53.556;9.914;2023-11-21T05:21:12;11.00;;;5.10;;
71606;SDS011;60641;53.556;9.914;2023-11-21T05:23:39;11.20;;;5.30;;
71606;SDS011;60641;53.556;9.914;2023-11-21T05:26:06;10.10;;;4.30;;
71606;SDS011;60641;53.556;9.914;2023-11-21T05:28:33;11.60;;;5.40;;
71606;SDS011;60641;53.556;9.914;2023-11-21T05:31:00;11.40;;;5.00;;
71606;SDS011;60641;53.556;9.914;2023-11-21T05:33:27;11.10;;;5.30;;
71606;SDS011;60641;53.556;9.914;2023-11-21T05:35:54;11.60;;;4.80;;
71606;SDS011;60641;53.556;9.914;2023-11-21T05:38:20;11.00;;;4.90;;
71606;SDS011;60641;53.556;9.914;2023-11-21T05:40:48;13.50;;;5.00;;
71606;SDS011;60641;53.556;9.914;2023-11-21T05:43:14;12.30;;;5.80;;
71606;SDS011;60641;53.556;9.914;2023-11-21T05:45:41;10.60;;;5.40;;
71606;SDS011;60641;53.556;9.914;2023-11-21T05:48:07;10.50;;;4.90;;
71606;SDS011;60641;53.556;9.914;2023-11-21T05:50:34;10.30;;;5.40;;
71606;SDS011;60641;53.556;9.914;2023-11-21T05:53:00;11.30;;;5.40;;
71606;SDS011;60641;53.556;9.914;2023-11-21T05:55:27;11.30;;;5.40;;
71606;SDS011;60641;53.556;9.914;2023-11-21T05:57:54;10.20;;;4.50;;
71606;SDS011;60641;53.556;9.914;2023-11-21T06:00:20;13.10;;;5.40;;
71606;SDS011;60641;53.556;9.914;2023-11-21T06:02:48;11.70;;;4.40;;
71606;SDS011;60641;53.556;9.914;2023-11-21T06:05:22;12.10;;;5.10;;
71606;SDS011;60641;53.556;9.914;2023-11-21T06:07:50;10.20;;;4.80;;
71606;SDS011;60641;53.556;9.914;2023-11-21T06:10:17;10.20;;;4.80;;
71606;SDS011;60641;53.556;9.914;2023-11-21T06:12:45;10.90;;;5.00;;
71606;SDS011;60641;53.556;9.914;2023-11-21T06:15:12;10.90;;;5.30;;
71606;SDS011;60641;53.556;9.914;2023-11-21T06:17:41;11.80;;;5.60;;
71606;SDS011;60641;53.556;9.914;2023-11-21T06:20:09;12.20;;;5.30;;
71606;SDS011;60641;53.556;9.914;2023-11-21T06:22:41;11.30;;;5.50;;
71606;SDS011;60641;53.556;9.914;2023-11-21T06:25:09;10.60;;;4.90;;
71606;SDS011;60641;53.556;9.914;2023-11-21T06:27:37;10.90;;;4.60;;
71606;SDS011;60641;53.556;9.914;2023-11-21T06:30:07;11.30;;;5.20;;
71606;SDS011;60641;53.556;9.914;2023-11-21T06:32:35;11.90;;;5.30;;
71606;SDS011;60641;53.556;9.914;2023-11-21T06:35:02;9.80;;;4.40;;
71606;SDS011;60641;53.556;9.914;2023-11-21T06:37:30;10.90;;;5.00;;
71606;SDS011;60641;53.556;9.914;2023-11-21T06:39:58;10.60;;;4.80;;
71606;SDS011;60641;53.556;9.914;2023-11-21T06:42:25;11.60;;;4.90;;
71606;SDS011;60641;53.556;9.914;2023-11-21T06:44:52;10.00;;;4.50;;
71606;SDS011;60641;53.556;9.914;2023-11-21T06:47:20;10.50;;;5.10;;
71606;SDS011;60641;53.556;9.914;2023-11-21T06:49:46;12.90;;;5.40;;
71606;SDS011;60641;53.556;9.914;2023-11-21T06:52:16;11.90;;;5.00;;
71606;SDS011;60641;53.556;9.914;2023-11-21T06:54:42;12.20;;;5.70;;
71606;SDS011;60641;53.556;9.914;2023-11-21T06:57:11;10.90;;;5.10;;
71606;SDS011;60641;53.556;9.914;2023-11-21T06:59:38;12.80;;;5.90;;
71606;SDS011;60641;53.556;9.914;2023-11-21T07:02:08;10.30;;;4.20;;
71606;SDS011;60641;53.556;9.914;2023-11-21T07:04:35;10.10;;;5.00;;
71606;SDS011;60641;53.556;9.914;2023-11-21T07:07:02;13.10;;;5.10;;
71606;SDS011;60641;53.556;9.914;2023-11-21T07:09:30;11.10;;;4.80;;
71606;SDS011;60641;53.556;9.914;2023-11-21T07:12:09;11.30;;;5.40;;
71606;SDS011;60641;53.556;9.914;2023-11-21T07:14:40;11.90;;;5.30;;
71606;SDS011;60641;53.556;9.914;2023-11-21T07:17:12;11.20;;;5.20;;
71606;SDS011;60641;53.556;9.914;2023-11-21T07:19:43;12.50;;;5.20;;
71606;SDS011;60641;53.556;9.914;2023-11-21T07:22:09;12.20;;;4.50;;
71606;SDS011;60641;53.556;9.914;2023-11-21T07:24:37;12.30;;;4.80;;
71606;SDS011;60641;53.556;9.914;2023-11-21T07:27:03;11.50;;;4.60;;
71606;SDS011;60641;53.556;9.914;2023-11-21T07:29:30;10.90;;;5.40;;
71606;SDS011;60641;53.556;9.914;2023-11-21T07:32:11;14.60;;;5.50;;
71606;SDS011;60641;53.556;9.914;2023-11-21T07:34:39;12.60;;;5.20;;
71606;SDS011;60641;53.556;9.914;2023-11-21T07:37:05;13.40;;;6.10;;
71606;SDS011;60641;53.556;9.914;2023-11-21T07:39:32;12.60;;;5.80;;
71606;SDS011;60641;53.556;9.914;2023-11-21T07:42:03;10.80;;;5.30;;
71606;SDS011;60641;53.556;9.914;2023-11-21T07:47:37;11.90;;;6.00;;
71606;SDS011;60641;53.556;9.914;2023-11-21T07:50:14;13.90;;;5.50;;
71606;SDS011;60641;53.556;9.914;2023-11-21T07:55:46;12.10;;;5.10;;
71606;SDS011;60641;53.556;9.914;2023-11-21T07:58:18;10.30;;;4.50;;
71606;SDS011;60641;53.556;9.914;2023-11-21T08:00:45;10.10;;;5.10;;
71606;SDS011;60641;53.556;9.914;2023-11-21T08:03:13;12.50;;;5.00;;
71606;SDS011;60641;53.556;9.914;2023-11-21T08:05:43;13.30;;;5.10;;
71606;SDS011;60641;53.556;9.914;2023-11-21T08:08:10;10.90;;;5.00;;
71606;SDS011;60641;53.556;9.914;2023-11-21T08:10:39;10.50;;;4.30;;
71606;SDS011;60641;53.556;9.914;2023-11-21T08:13:12;10.50;;;4.50;;
71606;SDS011;60641;53.556;9.914;2023-11-21T08:15:46;11.70;;;4.20;;
71606;SDS011;60641;53.556;9.914;2023-11-21T08:18:13;8.60;;;3.80;;
71606;SDS011;60641;53.556;9.914;2023-11-21T08:20:41;11.30;;;4.20;;
71606;SDS011;60641;53.556;9.914;2023-11-21T08:23:08;8.10;;;3.70;;
71606;SDS011;60641;53.556;9.914;2023-11-21T08:29:09;8.80;;;3.70;;
71606;SDS011;60641;53.556;9.914;2023-11-21T08:31:35;8.00;;;3.40;;
71606;SDS011;60641;53.556;9.914;2023-11-21T08:34:04;8.00;;;3.40;;
71606;SDS011;60641;53.556;9.914;2023-11-21T08:36:30;8.70;;;3.40;;
71606;SDS011;60641;53.556;9.914;2023-11-21T08:38:57;9.30;;;3.80;;
71606;SDS011;60641;53.556;9.914;2023-11-21T08:41:24;8.70;;;3.30;;
71606;SDS011;60641;53.556;9.914;2023-11-21T08:43:51;8.90;;;3.50;;
71606;SDS011;60641;53.556;9.914;2023-11-21T08:46:17;10.50;;;4.00;;
71606;SDS011;60641;53.556;9.914;2023-11-21T08:48:44;8.80;;;3.40;;
71606;SDS011;60641;53.556;9.914;2023-11-21T08:51:11;8.80;;;3.60;;
71606;SDS011;60641;53.556;9.914;2023-11-21T08:53:38;9.70;;;3.70;;
71606;SDS011;60641;53.556;9.914;2023-11-21T08:56:05;9.60;;;3.20;;
71606;SDS011;60641;53.556;9.914;2023-11-21T08:58:32;10.00;;;3.40;;
71606;SDS011;60641;53.556;9.914;2023-11-21T09:00:58;11.30;;;3.40;;
71606;SDS011;60641;53.556;9.914;2023-11-21T09:03:25;9.70;;;3.10;;
71606;SDS011;60641;53.556;9.914;2023-11-21T09:05:51;8.60;;;2.90;;
71606;SDS011;60641;53.556;9.914;2023-11-21T09:08:18;9.70;;;3.30;;
71606;SDS011;60641;53.556;9.914;2023-11-21T09:10:44;8.20;;;2.60;;
71606;SDS011;60641;53.556;9.914;2023-11-21T09:13:13;9.50;;;3.10;;
71606;SDS011;60641;53.556;9.914;2023-11-21T09:15:40;10.30;;;4.00;;
71606;SDS011;60641;53.556;9.914;2023-11-21T09:18:06;10.40;;;3.80;;
71606;SDS011;60641;53.556;9.914;2023-11-21T09:20:33;10.80;;;4.20;;
71606;SDS011;60641;53.556;9.914;2023-11-21T09:22:59;9.50;;;4.10;;
71606;SDS011;60641;53.556;9.914;2023-11-21T09:25:26;11.20;;;4.70;;
71606;SDS011;60641;53.556;9.914;2023-11-21T09:27:52;8.90;;;3.80;;
71606;SDS011;60641;53.556;9.914;2023-11-21T09:30:19;8.70;;;3.90;;
71606;SDS011;60641;53.556;9.914;2023-11-21T09:32:46;10.00;;;3.60;;
71606;SDS011;60641;53.556;9.914;2023-11-21T09:35:12;9.40;;;4.00;;
71606;SDS011;60641;53.556;9.914;2023-11-21T09:37:40;12.80;;;3.60;;
71606;SDS011;60641;53.556;9.914;2023-11-21T09:40:08;9.90;;;3.20;;
71606;SDS011;60641;53.556;9.914;2023-11-21T09:42:39;8.60;;;3.30;;
71606;SDS011;60641;53.556;9.914;2023-11-21T09:47:42;6.90;;;2.60;;
71606;SDS011;60641;53.556;9.914;2023-11-21T09:50:09;13.10;;;3.40;;
71606;SDS011;60641;53.556;9.914;2023-11-21T09:52:43;7.20;;;2.80;;
71606;SDS011;60641;53.556;9.914;2023-11-21T09:55:21;6.60;;;2.60;;
71606;SDS011;60641;53.556;9.914;2023-11-21T09:57:47;7.70;;;2.90;;
71606;SDS011;60641;53.556;9.914;2023-11-21T10:00:17;6.50;;;2.60;;
71606;SDS011;60641;53.556;9.914;2023-11-21T10:02:46;6.60;;;2.20;;
71606;SDS011;60641;53.556;9.914;2023-11-21T10:05:14;7.70;;;2.40;;
71606;SDS011;60641;53.556;9.914;2023-11-21T10:07:41;7.70;;;2.50;;
71606;SDS011;60641;53.556;9.914;2023-11-21T10:10:09;7.10;;;2.50;;
71606;SDS011;60641;53.556;9.914;2023-11-21T10:12:38;10.20;;;2.80;;
71606;SDS011;60641;53.556;9.914;2023-11-21T10:15:07;7.40;;;2.60;;
71606;SDS011;60641;53.556;9.914;2023-11-21T10:17:38;6.90;;;2.40;;
71606;SDS011;60641;53.556;9.914;2023-11-21T10:20:10;7.20;;;1.90;;
71606;SDS011;60641;53.556;9.914;2023-11-21T10:22:40;6.20;;;2.00;;
71606;SDS011;60641;53.556;9.914;2023-11-21T10:25:08;6.00;;;2.10;;
71606;SDS011;60641;53.556;9.914;2023-11-21T10:27:38;5.00;;;2.00;;
71606;SDS011;60641;53.556;9.914;2023-11-21T10:30:05;7.30;;;2.40;;
71606;SDS011;60641;53.556;9.914;2023-11-21T10:32:34;6.10;;;2.10;;
71606;SDS011;60641;53.556;9.914;2023-11-21T10:35:01;7.10;;;2.40;;
71606;SDS011;60641;53.556;9.914;2023-11-21T10:37:32;8.40;;;2.70;;
71606;SDS011;60641;53.556;9.914;2023-11-21T10:39:59;7.20;;;2.30;;
71606;SDS011;60641;53.556;9.914;2023-11-21T10:42:25;7.70;;;2.20;;
71606;SDS011;60641;53.556;9.914;2023-11-21T10:44:53;6.80;;;2.20;;
71606;SDS011;60641;53.556;9.914;2023-11-21T10:47:20;6.70;;;2.50;;
71606;SDS011;60641;53.556;9.914;2023-11-21T10:49:48;7.50;;;2.60;;
71606;SDS011;60641;53.556;9.914;2023-11-21T10:52:15;5.70;;;1.90;;
71606;SDS011;60641;53.556;9.914;2023-11-21T10:54:43;6.10;;;2.20;;
71606;SDS011;60641;53.556;9.914;2023-11-21T10:57:10;6.30;;;2.00;;
71606;SDS011;60641;53.556;9.914;2023-11-21T10:59:37;6.30;;;1.90;;
71606;SDS011;60641;53.556;9.914;2023-11-21T11:02:18;7.20;;;2.00;;
71606;SDS011;60641;53.556;9.914;2023-11-21T11:04:51;6.40;;;2.00;;
71606;SDS011;60641;53.556;9.914;2023-11-21T11:07:18;5.90;;;1.80;;
71606;SDS011;60641;53.556;9.914;2023-11-21T11:09:48;6.20;;;2.10;;
71606;SDS011;60641;53.556;9.914;2023-11-21T11:12:14;5.10;;;1.90;;
71606;SDS011;60641;53.556;9.914;2023-11-21T11:14:41;7.10;;;2.20;;
71606;SDS011;60641;53.556;9.914;2023-11-21T11:17:11;6.30;;;2.00;;
71606;SDS011;60641;53.556;9.914;2023-11-21T11:19:40;7.80;;;2.00;;
71606;SDS011;60641;53.556;9.914;2023-11-21T11:22:19;6.20;;;2.00;;
71606;SDS011;60641;53.556;9.914;2023-11-21T11:28:17;6.40;;;2.10;;
71606;SDS011;60641;53.556;9.914;2023-11-21T11:31:04;6.30;;;1.90;;
71606;SDS011;60641;53.556;9.914;2023-11-21T11:33:45;5.60;;;1.90;;
71606;SDS011;60641;53.556;9.914;2023-11-21T11:36:25;6.60;;;2.10;;
71606;SDS011;60641;53.556;9.914;2023-11-21T11:38:58;6.10;;;2.00;;
71606;SDS011;60641;53.556;9.914;2023-11-21T11:41:30;7.70;;;1.90;;
71606;SDS011;60641;53.556;9.914;2023-11-21T11:44:02;5.30;;;1.60;;
71606;SDS011;60641;53.556;9.914;2023-11-21T11:46:43;8.70;;;2.20;;
71606;SDS011;60641;53.556;9.914;2023-11-21T11:49:35;7.80;;;2.00;;
71606;SDS011;60641;53.556;9.914;2023-11-21T11:54:59;6.40;;;1.70;;
71606;SDS011;60641;53.556;9.914;2023-11-21T11:57:26;6.90;;;2.10;;
71606;SDS011;60641;53.556;9.914;2023-11-21T12:02:59;8.00;;;2.00;;
71606;SDS011;60641;53.556;9.914;2023-11-21T12:05:34;5.70;;;1.90;;
71606;SDS011;60641;53.556;9.914;2023-11-21T12:08:07;8.70;;;2.20;;
71606;SDS011;60641;53.556;9.914;2023-11-21T12:10:34;6.70;;;2.10;;
71606;SDS011;60641;53.556;9.914;2023-11-21T12:13:06;5.70;;;1.90;;
71606;SDS011;60641;53.556;9.914;2023-11-21T12:15:34;11.60;;;2.30;;
71606;SDS011;60641;53.556;9.914;2023-11-21T12:18:01;9.60;;;2.60;;
71606;SDS011;60641;53.556;9.914;2023-11-21T12:20:28;7.90;;;2.40;;
71606;SDS011;60641;53.556;9.914;2023-11-21T12:22:55;6.50;;;1.90;;
71606;SDS011;60641;53.556;9.914;2023-11-21T12:25:29;8.70;;;2.00;;
71606;SDS011;60641;53.556;9.914;2023-11-21T12:27:58;7.10;;;2.20;;
71606;SDS011;60641;53.556;9.914;2023-11-21T12:30:27;6.40;;;2.00;;
71606;SDS011;60641;53.556;9.914;2023-11-21T12:32:57;6.40;;;2.20;;
71606;SDS011;60641;53.556;9.914;2023-11-21T12:35:25;6.80;;;1.90;;
71606;SDS011;60641;53.556;9.914;2023-11-21T12:37:54;6.40;;;1.90;;
71606;SDS011;60641;53.556;9.914;2023-11-21T12:40:21;7.80;;;2.20;;
71606;SDS011;60641;53.556;9.914;2023-11-21T12:42:51;4.70;;;1.50;;
71606;SDS011;60641;53.556;9.914;2023-11-21T12:47:50;6.10;;;2.00;;
71606;SDS011;60641;53.556;9.914;2023-11-21T12:50:20;5.90;;;2.00;;
71606;SDS011;60641;53.556;9.914;2023-11-21T12:52:52;6.40;;;2.10;;
71606;SDS011;60641;53.556;9.914;2023-11-21T12:55:23;5.90;;;2.00;;
71606;SDS011;60641;53.556;9.914;2023-11-21T12:57:50;8.00;;;2.40;;
71606;SDS011;60641;53.556;9.914;2023-11-21T13:00:18;9.50;;;2.50;;
71606;SDS011;60641;53.556;9.914;2023-11-21T13:02:54;5.90;;;2.10;;
71606;SDS011;60641;53.556;9.914;2023-11-21T13:05:30;5.60;;;1.70;;
71606;SDS011;60641;53.556;9.914;2023-11-21T13:08:00;6.60;;;2.30;;
71606;SDS011;60641;53.556;9.914;2023-11-21T13:10:30;6.20;;;2.20;;
71606;SDS011;60641;53.556;9.914;2023-11-21T13:12:58;5.70;;;2.20;;
71606;SDS011;60641;53.556;9.914;2023-11-21T13:15:29;5.20;;;1.60;;
71606;SDS011;60641;53.556;9.914;2023-11-21T13:17:57;7.70;;;2.00;;
71606;SDS011;60641;53.556;9.914;2023-11-21T13:20:25;6.40;;;2.00;;
71606;SDS011;60641;53.556;9.914;2023-11-21T13:22:55;6.00;;;1.70;;
71606;SDS011;60641;53.556;9.914;2023-11-21T13:25:27;9.30;;;1.90;;
71606;SDS011;60641;53.556;9.914;2023-11-21T13:30:22;5.30;;;2.00;;
71606;SDS011;60641;53.556;9.914;2023-11-21T13:32:53;5.90;;;2.00;;
71606;SDS011;60641;53.556;9.914;2023-11-21T13:35:23;8.90;;;2.40;;
71606;SDS011;60641;53.556;9.914;2023-11-21T13:38:04;8.90;;;2.30;;
71606;SDS011;60641;53.556;9.914;2023-11-21T13:40:32;7.30;;;2.00;;
71606;SDS011;60641;53.556;9.914;2023-11-21T13:43:06;7.20;;;2.20;;
71606;SDS011;60641;53.556;9.914;2023-11-21T13:45:39;7.10;;;2.00;;
71606;SDS011;60641;53.556;9.914;2023-11-21T13:48:06;8.60;;;2.20;;
71606;SDS011;60641;53.556;9.914;2023-11-21T13:50:36;6.80;;;2.00;;
71606;SDS011;60641;53.556;9.914;2023-11-21T13:53:03;8.50;;;2.30;;
71606;SDS011;60641;53.556;9.914;2023-11-21T13:55:51;8.30;;;2.20;;
71606;SDS011;60641;53.556;9.914;2023-11-21T13:58:20;5.50;;;1.90;;
71606;SDS011;60641;53.556;9.914;2023-11-21T14:01:12;6.40;;;1.70;;
71606;SDS011;60641;53.556;9.914;2023-11-21T14:04:00;7.10;;;1.90;;
71606;SDS011;60641;53.556;9.914;2023-11-21T14:06:46;4.50;;;1.60;;
71606;SDS011;60641;53.556;9.914;2023-11-21T14:09:15;5.10;;;1.80;;
71606;SDS011;60641;53.556;9.914;2023-11-21T14:11:52;6.30;;;1.40;;
71606;SDS011;60641;53.556;9.914;2023-11-21T14:14:20;5.20;;;1.60;;
71606;SDS011;60641;53.556;9.914;2023-11-21T14:16:47;5.20;;;1.50;;
71606;SDS011;60641;53.556;9.914;2023-11-21T14:19:33;4.60;;;1.70;;
71606;SDS011;60641;53.556;9.914;2023-11-21T14:22:02;6.80;;;2.00;;
71606;SDS011;60641;53.556;9.914;2023-11-21T14:24:29;8.60;;;2.10;;
71606;SDS011;60641;53.556;9.914;2023-11-21T14:26:57;7.30;;;1.90;;
71606;SDS011;60641;53.556;9.914;2023-11-21T14:29:23;8.20;;;2.00;;
71606;SDS011;60641;53.556;9.914;2023-11-21T14:31:50;6.40;;;2.00;;
71606;SDS011;60641;53.556;9.914;2023-11-21T14:34:17;6.40;;;1.70;;
71606;SDS011;60641;53.556;9.914;2023-11-21T14:36:44;7.40;;;1.70;;
71606;SDS011;60641;53.556;9.914;2023-11-21T14:39:11;6.00;;;1.80;;
71606;SDS011;60641;53.556;9.914;2023-11-21T14:41:49;6.80;;;2.00;;
71606;SDS011;60641;53.556;9.914;2023-11-21T14:44:16;4.90;;;1.70;;
71606;SDS011;60641;53.556;9.914;2023-11-21T14:46:43;4.20;;;1.50;;
71606;SDS011;60641;53.556;9.914;2023-11-21T14:49:16;4.50;;;1.30;;
71606;SDS011;60641;53.556;9.914;2023-11-21T14:51:47;5.40;;;1.30;;
71606;SDS011;60641;53.556;9.914;2023-11-21T14:54:29;3.60;;;1.20;;
71606;SDS011;60641;53.556;9.914;2023-11-21T14:57:13;3.80;;;1.20;;
71606;SDS011;60641;53.556;9.914;2023-11-21T14:59:45;5.70;;;1.30;;
71606;SDS011;60641;53.556;9.914;2023-11-21T15:02:23;4.40;;;1.30;;
71606;SDS011;60641;53.556;9.914;2023-11-21T15:05:10;3.50;;;1.20;;
71606;SDS011;60641;53.556;9.914;2023-11-21T15:07:44;4.20;;;1.20;;
71606;SDS011;60641;53.556;9.914;2023-11-21T15:10:11;7.90;;;1.30;;
71606;SDS011;60641;53.556;9.914;2023-11-21T15:12:41;5.50;;;1.30;;
71606;SDS011;60641;53.556;9.914;2023-11-21T15:15:09;4.10;;;1.20;;
71606;SDS011;60641;53.556;9.914;2023-11-21T15:17:37;4.50;;;1.00;;